createdAt,value
2018-09-03T00:00:58.337Z,2.10
2018-09-03T00:03:26.401Z,2.60
2018-09-03T00:05:54.460Z,2.62
2018-09-03T00:08:22.508Z,2.95
2018-09-03T00:10:51.908Z,2.40
2018-09-03T00:13:20.004Z,2.02
2018-09-03T00:15:48.060Z,2.25
2018-09-03T00:18:16.119Z,1.92
2018-09-03T00:20:44.544Z,2.40
2018-09-03T00:23:12.608Z,1.95
2018-09-03T00:25:40.650Z,2.05
2018-09-03T00:28:08.716Z,2.27
2018-09-03T00:30:36.782Z,2.27
2018-09-03T00:33:10.289Z,2.35
2018-09-03T00:35:43.829Z,2.55
2018-09-03T00:38:17.480Z,2.12
2018-09-03T00:40:51.036Z,2.00
2018-09-03T00:43:24.719Z,2.27
2018-09-03T00:45:58.197Z,2.37
2018-09-03T00:48:26.257Z,2.00
2018-09-03T00:50:54.301Z,1.98
2018-09-03T00:53:22.348Z,2.47
2018-09-03T00:55:50.396Z,2.30
2018-09-03T00:58:18.473Z,2.85
2018-09-03T01:00:46.556Z,2.10
2018-09-03T01:03:14.616Z,2.80
2018-09-03T01:05:42.668Z,2.42
2018-09-03T01:08:10.724Z,2.40
2018-09-03T01:10:38.781Z,2.50
2018-09-03T01:13:07.001Z,2.55
2018-09-03T01:15:35.061Z,2.72
2018-09-03T01:18:03.123Z,2.95
2018-09-03T01:20:31.860Z,2.52
2018-09-03T01:22:59.935Z,2.33
2018-09-03T01:25:27.979Z,2.70
2018-09-03T01:27:56.044Z,3.08
2018-09-03T01:30:24.110Z,2.70
2018-09-03T01:32:52.180Z,2.58
2018-09-03T01:35:20.233Z,2.80
2018-09-03T01:37:48.318Z,3.15
2018-09-03T01:40:16.381Z,2.95
2018-09-03T01:42:44.440Z,3.10
2018-09-03T01:45:12.596Z,3.25
2018-09-03T01:47:40.640Z,3.02
2018-09-03T01:50:08.683Z,2.50
2018-09-03T01:52:36.741Z,3.20
2018-09-03T01:55:04.801Z,2.47
2018-09-03T01:57:32.861Z,2.77
2018-09-03T02:00:00.912Z,3.37
2018-09-03T02:02:28.968Z,3.00
2018-09-03T02:04:57.033Z,3.10
2018-09-03T02:07:25.088Z,3.17
2018-09-03T02:09:53.225Z,3.05
2018-09-03T02:12:21.284Z,3.15
2018-09-03T02:14:49.389Z,3.58
2018-09-03T02:17:17.456Z,3.40
2018-09-03T02:19:45.505Z,2.95
2018-09-03T02:22:13.569Z,2.90
2018-09-03T02:24:41.619Z,4.20
2018-09-03T02:27:09.700Z,2.98
2018-09-03T02:29:37.762Z,3.08
2018-09-03T02:32:06.029Z,3.20
2018-09-03T02:34:34.109Z,3.45
2018-09-03T02:37:02.168Z,2.98
2018-09-03T02:39:30.240Z,2.90
2018-09-03T02:41:58.293Z,3.50
2018-09-03T02:44:26.351Z,3.20
2018-09-03T02:46:54.397Z,3.27
2018-09-03T02:49:22.453Z,2.85
2018-09-03T02:51:50.509Z,3.10
2018-09-03T02:54:18.566Z,3.70
2018-09-03T02:56:46.624Z,3.02
2018-09-03T02:59:14.685Z,3.80
2018-09-03T03:01:42.736Z,3.10
2018-09-03T03:04:10.808Z,3.33
2018-09-03T03:06:38.860Z,3.45
2018-09-03T03:09:08.151Z,4.00
2018-09-03T03:11:36.538Z,2.83
2018-09-03T03:14:04.555Z,3.92
2018-09-03T03:16:32.615Z,3.85
2018-09-03T03:19:00.681Z,3.90
2018-09-03T03:21:28.737Z,3.80
2018-09-03T03:23:56.796Z,3.95
2018-09-03T03:26:24.857Z,3.62
2018-09-03T03:28:52.912Z,4.03
2018-09-03T03:31:20.979Z,3.37
2018-09-03T03:33:49.046Z,3.67
2018-09-03T03:36:17.100Z,2.90
2018-09-03T03:38:45.169Z,3.60
2018-09-03T03:41:13.204Z,3.55
2018-09-03T03:43:41.269Z,4.28
2018-09-03T03:46:09.341Z,4.12
2018-09-03T03:48:37.437Z,4.55
2018-09-03T03:51:05.456Z,3.47
2018-09-03T03:53:33.529Z,4.40
2018-09-03T03:56:01.585Z,4.10
2018-09-03T03:58:29.788Z,3.98
2018-09-03T04:00:57.853Z,4.05
2018-09-03T04:03:25.917Z,4.47
2018-09-03T04:05:53.975Z,4.83
2018-09-03T04:08:22.030Z,4.30
2018-09-03T04:10:50.085Z,4.03
2018-09-03T04:13:18.152Z,4.20
2018-09-03T04:15:46.229Z,3.87
2018-09-03T04:18:14.320Z,5.00
2018-09-03T04:20:42.372Z,3.55
2018-09-03T04:23:10.466Z,4.28
2018-09-03T04:25:38.545Z,4.00
2018-09-03T04:28:06.607Z,4.25
2018-09-03T04:30:34.676Z,3.75
2018-09-03T04:33:02.734Z,5.05
2018-09-03T04:35:30.797Z,4.20
2018-09-03T04:37:58.860Z,4.00
2018-09-03T04:40:26.908Z,4.03
2018-09-03T04:42:54.964Z,4.25
2018-09-03T04:45:23.031Z,3.92
2018-09-03T04:47:51.088Z,4.20
2018-09-03T04:50:19.136Z,3.83
2018-09-03T04:52:47.196Z,4.22
2018-09-03T04:55:15.272Z,4.17
2018-09-03T04:57:43.325Z,4.17
2018-09-03T05:00:13.669Z,3.65
2018-09-03T05:02:41.747Z,3.75
2018-09-03T05:05:09.813Z,5.00
2018-09-03T05:07:37.880Z,4.25
2018-09-03T05:10:05.959Z,4.20
2018-09-03T05:12:34.280Z,4.50
2018-09-03T05:15:02.092Z,4.10
2018-09-03T05:17:30.172Z,4.45
2018-09-03T05:19:58.242Z,4.28
2018-09-03T05:22:26.296Z,5.28
2018-09-03T05:24:54.372Z,4.83
2018-09-03T05:27:22.427Z,4.00
2018-09-03T05:29:50.490Z,4.35
2018-09-03T05:32:18.534Z,4.03
2018-09-03T05:34:46.584Z,3.72
2018-09-03T05:37:14.688Z,3.80
2018-09-03T05:39:42.740Z,4.58
2018-09-03T05:42:10.794Z,4.30
2018-09-03T05:44:38.861Z,4.12
2018-09-03T05:47:06.936Z,4.15
2018-09-03T05:49:35.263Z,4.37
2018-09-03T05:52:03.440Z,4.42
2018-09-03T05:54:31.497Z,4.28
2018-09-03T05:56:59.539Z,4.42
2018-09-03T05:59:27.597Z,4.65
2018-09-03T06:01:55.988Z,3.90
2018-09-03T06:04:24.061Z,5.08
2018-09-03T06:06:52.108Z,4.80
2018-09-03T06:09:20.170Z,5.20
2018-09-03T06:11:48.225Z,5.45
2018-09-03T06:14:16.303Z,3.85
2018-09-03T06:16:44.336Z,4.37
2018-09-03T06:19:12.385Z,4.72
2018-09-03T06:21:40.446Z,4.12
2018-09-03T06:24:08.508Z,4.22
2018-09-03T06:26:36.563Z,4.70
2018-09-03T06:29:04.612Z,5.15
2018-09-03T06:31:32.968Z,5.08
2018-09-03T06:34:01.038Z,4.10
2018-09-03T06:36:29.097Z,5.37
2018-09-03T06:38:57.366Z,4.55
2018-09-03T06:41:25.409Z,4.42
2018-09-03T06:43:53.470Z,4.47
2018-09-03T06:46:21.541Z,4.40
2018-09-03T06:48:49.612Z,5.22
2018-09-03T06:51:17.882Z,4.30
2018-09-03T06:53:46.268Z,4.08
2018-09-03T06:56:14.341Z,4.35
2018-09-03T06:58:42.652Z,4.37
2018-09-03T07:01:10.936Z,5.20
2018-09-03T07:03:39.014Z,4.75
2018-09-03T07:06:07.065Z,4.75
2018-09-03T07:08:35.121Z,5.67
2018-09-03T07:11:03.192Z,5.45
2018-09-03T07:13:31.268Z,5.65
2018-09-03T07:15:59.328Z,5.50
2018-09-03T07:18:27.383Z,4.08
2018-09-03T07:20:55.473Z,5.62
2018-09-03T07:23:23.537Z,5.08
2018-09-03T07:25:51.603Z,5.20
2018-09-03T07:28:19.666Z,6.12
2018-09-03T07:30:47.712Z,5.42
2018-09-03T07:33:15.800Z,4.92
2018-09-03T07:35:43.881Z,5.15
2018-09-03T07:38:11.930Z,5.92
2018-09-03T07:40:39.989Z,6.40
2018-09-03T07:43:08.073Z,5.80
2018-09-03T07:45:36.142Z,5.30
2018-09-03T07:48:04.345Z,5.67
2018-09-03T07:50:32.514Z,5.50
2018-09-03T07:53:00.560Z,6.30
2018-09-03T07:55:28.622Z,5.70
2018-09-03T07:57:56.705Z,5.28
2018-09-03T08:00:24.764Z,5.80
2018-09-03T08:02:52.816Z,5.15
2018-09-03T08:05:20.867Z,5.80
2018-09-03T08:07:48.928Z,5.33
2018-09-03T08:10:16.984Z,5.62
2018-09-03T08:12:45.042Z,5.37
2018-09-03T08:15:13.098Z,5.47
2018-09-03T08:17:41.161Z,6.47
2018-09-03T08:20:09.342Z,6.55
2018-09-03T08:22:37.336Z,5.05
2018-09-03T08:25:05.431Z,4.62
2018-09-03T08:27:33.492Z,6.37
2018-09-03T08:30:01.575Z,5.00
2018-09-03T08:32:29.612Z,4.80
2018-09-03T08:34:58.462Z,5.20
2018-09-03T08:37:26.497Z,4.97
2018-09-03T08:39:54.557Z,4.75
2018-09-03T08:42:22.701Z,5.90
2018-09-03T08:44:50.872Z,5.25
2018-09-03T08:47:18.808Z,5.62
2018-09-03T08:49:46.857Z,6.20
2018-09-03T08:52:14.916Z,5.65
2018-09-03T08:54:42.977Z,5.85
2018-09-03T08:57:11.250Z,5.15
2018-09-03T08:59:39.313Z,5.53
2018-09-03T09:02:07.509Z,5.92
2018-09-03T09:04:35.562Z,5.40
2018-09-03T09:07:03.888Z,5.35
2018-09-03T09:09:32.050Z,5.97
2018-09-03T09:12:00.119Z,6.12
2018-09-03T09:14:28.176Z,6.12
2018-09-03T09:16:56.252Z,4.65
2018-09-03T09:19:24.327Z,5.55
2018-09-03T09:21:52.384Z,5.35
2018-09-03T09:24:20.489Z,5.00
2018-09-03T09:26:48.502Z,4.95
2018-09-03T09:29:16.556Z,4.62
2018-09-03T09:31:44.656Z,5.40
2018-09-03T09:34:12.715Z,4.70
2018-09-03T09:36:40.848Z,6.62
2018-09-03T09:39:09.388Z,6.70
2018-09-03T09:41:37.467Z,5.65
2018-09-03T09:44:05.980Z,5.28
2018-09-03T09:46:34.032Z,5.72
2018-09-03T09:49:02.105Z,5.55
2018-09-03T09:51:30.165Z,6.97
2018-09-03T09:53:58.228Z,5.92
2018-09-03T09:56:26.284Z,5.03
2018-09-03T09:58:54.352Z,5.90
2018-09-03T10:01:27.725Z,4.85
2018-09-03T10:03:55.788Z,4.72
2018-09-03T10:06:23.842Z,4.80
2018-09-03T10:08:51.909Z,4.95
2018-09-03T10:11:19.975Z,4.70
2018-09-03T10:13:48.029Z,4.83
2018-09-03T10:16:16.170Z,5.50
2018-09-03T10:18:44.252Z,5.87
2018-09-03T10:21:12.306Z,4.87
2018-09-03T10:23:40.438Z,5.60
2018-09-03T10:26:08.557Z,5.83
2018-09-03T10:28:36.565Z,5.22
2018-09-03T10:31:04.641Z,4.73
2018-09-03T10:33:32.709Z,4.50
2018-09-03T10:36:00.752Z,4.53
2018-09-03T10:38:28.822Z,3.90
2018-09-03T10:40:56.921Z,4.42
2018-09-03T10:43:24.988Z,5.42
2018-09-03T10:45:53.058Z,3.90
2018-09-03T10:48:21.134Z,3.47
2018-09-03T10:50:49.202Z,3.72
2018-09-03T10:53:17.260Z,4.53
2018-09-03T10:55:45.344Z,3.90
2018-09-03T10:58:13.445Z,4.80
2018-09-03T11:00:41.679Z,4.85
2018-09-03T11:03:09.719Z,4.40
2018-09-03T11:05:37.790Z,4.87
2018-09-03T11:08:05.861Z,4.33
2018-09-03T11:10:33.913Z,4.35
2018-09-03T11:13:02.004Z,4.37
2018-09-03T11:15:30.058Z,4.90
2018-09-03T11:17:58.125Z,5.08
2018-09-03T11:20:27.416Z,4.55
2018-09-03T11:22:56.024Z,4.70
2018-09-03T11:25:25.129Z,4.20
2018-09-03T11:27:53.836Z,4.42
2018-09-03T11:30:22.120Z,3.72
2018-09-03T11:32:55.596Z,4.08
2018-09-03T11:35:23.905Z,4.40
2018-09-03T11:37:51.972Z,3.92
2018-09-03T11:40:21.013Z,4.15
2018-09-03T11:42:49.085Z,4.87
2018-09-03T11:45:18.507Z,4.25
2018-09-03T11:47:46.901Z,4.67
2018-09-03T11:50:15.623Z,4.87
2018-09-03T11:52:43.676Z,5.22
2018-09-03T11:55:12.094Z,3.98
2018-09-03T11:57:40.155Z,4.15
2018-09-03T12:00:11.329Z,4.28
2018-09-03T12:02:39.394Z,5.05
2018-09-03T12:05:07.908Z,3.50
2018-09-03T12:07:35.961Z,4.20
2018-09-03T12:10:04.015Z,4.00
2018-09-03T12:12:32.084Z,4.25
2018-09-03T12:15:04.649Z,5.10
2018-09-03T12:17:32.736Z,4.90
2018-09-03T12:20:00.813Z,4.50
2018-09-03T12:22:28.868Z,4.45
2018-09-03T12:24:56.965Z,4.00
2018-09-03T12:27:25.068Z,3.87
2018-09-03T12:29:53.116Z,4.60
2018-09-03T12:32:21.178Z,4.90
2018-09-03T12:34:49.229Z,4.42
2018-09-03T12:37:17.284Z,4.40
2018-09-03T12:39:45.345Z,4.85
2018-09-03T12:42:13.420Z,4.85
2018-09-03T12:44:42.488Z,5.17
2018-09-03T12:47:10.538Z,5.87
2018-09-03T12:49:38.601Z,6.35
2018-09-03T12:52:06.645Z,5.05
2018-09-03T12:54:34.711Z,4.92
2018-09-03T12:57:02.764Z,6.12
2018-09-03T12:59:30.840Z,4.90
2018-09-03T13:01:58.910Z,5.22
2018-09-03T13:04:27.001Z,5.33
2018-09-03T13:06:55.047Z,6.40
2018-09-03T13:09:23.117Z,5.65
2018-09-03T13:11:51.173Z,5.28
2018-09-03T13:14:19.231Z,5.67
2018-09-03T13:16:47.281Z,5.67
2018-09-03T13:19:15.805Z,5.30
2018-09-03T13:21:43.979Z,6.20
2018-09-03T13:24:12.040Z,5.92
2018-09-03T13:26:40.096Z,6.12
2018-09-03T13:29:08.168Z,6.42
2018-09-03T13:31:36.261Z,6.00
2018-09-03T13:34:04.309Z,7.03
2018-09-03T13:36:32.364Z,6.78
2018-09-03T13:39:00.421Z,5.67
2018-09-03T13:41:28.494Z,6.50
2018-09-03T13:43:56.542Z,5.72
2018-09-03T13:46:24.624Z,7.05
2018-09-03T13:48:52.709Z,6.00
2018-09-03T13:51:20.777Z,5.55
2018-09-03T13:53:48.827Z,6.15
2018-09-03T13:56:16.901Z,6.45
2018-09-03T13:58:44.972Z,6.08
2018-09-03T14:01:13.042Z,6.45
2018-09-03T14:03:41.109Z,5.80
2018-09-03T14:06:09.182Z,5.47
2018-09-03T14:08:37.245Z,5.42
2018-09-03T14:11:05.404Z,6.30
2018-09-03T14:13:33.464Z,4.87
2018-09-03T14:16:01.524Z,6.87
2018-09-03T14:18:29.568Z,5.40
2018-09-03T14:20:57.646Z,6.60
2018-09-03T14:23:25.709Z,6.30
2018-09-03T14:25:53.771Z,6.62
2018-09-03T14:28:21.836Z,5.85
2018-09-03T14:30:49.892Z,5.83
2018-09-03T14:33:17.964Z,5.25
2018-09-03T14:35:46.009Z,6.05
2018-09-03T14:38:14.101Z,5.78
2018-09-03T14:40:42.172Z,5.33
2018-09-03T14:43:10.308Z,5.60
2018-09-03T14:45:38.288Z,6.28
2018-09-03T14:48:06.364Z,5.53
2018-09-03T14:50:34.512Z,5.42
2018-09-03T14:53:02.557Z,4.97
2018-09-03T14:55:30.629Z,5.92
2018-09-03T14:57:58.688Z,5.28
2018-09-03T15:00:26.756Z,5.50
2018-09-03T15:02:54.835Z,5.42
2018-09-03T15:05:22.893Z,5.35
2018-09-03T15:07:50.953Z,5.33
2018-09-03T15:10:19.018Z,5.00
2018-09-03T15:12:47.094Z,5.70
2018-09-03T15:15:15.164Z,4.75
2018-09-03T15:17:43.235Z,5.75
2018-09-03T15:20:11.324Z,5.03
2018-09-03T15:22:39.413Z,4.97
2018-09-03T15:25:07.469Z,4.22
2018-09-03T15:27:35.520Z,4.47
2018-09-03T15:30:03.572Z,5.17
2018-09-03T15:32:31.637Z,4.25
2018-09-03T15:34:59.704Z,4.30
2018-09-03T15:37:27.756Z,4.03
2018-09-03T15:39:55.809Z,4.30
2018-09-03T15:42:23.881Z,4.87
2018-09-03T15:44:52.045Z,4.50
2018-09-03T15:47:20.117Z,4.60
2018-09-03T15:49:48.193Z,4.75
2018-09-03T15:52:16.276Z,4.00
2018-09-03T15:54:44.369Z,4.37
2018-09-03T15:57:12.438Z,4.10
2018-09-03T15:59:40.480Z,4.92
2018-09-03T16:02:08.544Z,4.12
2018-09-03T16:04:36.593Z,5.30
2018-09-03T16:07:04.707Z,5.45
2018-09-03T16:09:32.752Z,4.12
2018-09-03T16:12:00.816Z,4.20
2018-09-03T16:14:28.902Z,4.60
2018-09-03T16:16:56.993Z,4.62
2018-09-03T16:19:25.069Z,5.47
2018-09-03T16:21:53.120Z,5.17
2018-09-03T16:24:21.197Z,4.67
2018-09-03T16:26:49.297Z,5.53
2018-09-03T16:29:17.349Z,5.67
2018-09-03T16:31:45.401Z,5.20
2018-09-03T16:34:13.445Z,5.40
2018-09-03T16:36:41.509Z,5.00
2018-09-03T16:39:09.556Z,5.70
2018-09-03T16:41:37.805Z,4.78
2018-09-03T16:44:05.855Z,5.62
2018-09-03T16:46:33.919Z,5.78
2018-09-03T16:49:02.035Z,6.00
2018-09-03T16:51:30.033Z,6.10
2018-09-03T16:53:58.092Z,6.00
2018-09-03T16:56:26.208Z,5.83
2018-09-03T16:58:54.260Z,5.65
2018-09-03T17:01:22.531Z,6.62
2018-09-03T17:03:50.493Z,6.28
2018-09-03T17:06:18.669Z,5.90
2018-09-03T17:08:46.733Z,6.70
2018-09-03T17:11:14.808Z,6.15
2018-09-03T17:13:42.897Z,6.72
2018-09-03T17:16:11.077Z,5.87
2018-09-03T17:18:39.118Z,5.65
2018-09-03T17:21:07.369Z,6.67
2018-09-03T17:23:35.506Z,5.37
2018-09-03T17:26:03.668Z,6.03
2018-09-03T17:28:31.794Z,6.70
2018-09-03T17:30:59.932Z,6.08
2018-09-03T17:33:28.037Z,5.97
2018-09-03T17:35:56.159Z,6.53
2018-09-03T17:38:24.233Z,6.50
2018-09-03T17:40:52.284Z,5.83
2018-09-03T17:43:20.365Z,6.10
2018-09-03T17:45:48.461Z,6.67
2018-09-03T17:48:16.498Z,6.25
2018-09-03T17:50:44.557Z,6.67
2018-09-03T17:53:12.785Z,6.90
2018-09-03T17:55:40.844Z,8.00
2018-09-03T17:58:08.969Z,6.42
2018-09-03T18:00:37.064Z,5.53
2018-09-03T18:03:05.317Z,6.33
2018-09-03T18:05:33.418Z,6.12
2018-09-03T18:08:01.487Z,6.37
2018-09-03T18:10:29.544Z,5.53
2018-09-03T18:12:57.696Z,5.90
2018-09-03T18:15:25.776Z,6.62
2018-09-03T18:17:53.872Z,6.58
2018-09-03T18:20:21.921Z,6.03
2018-09-03T18:22:50.005Z,6.53
2018-09-03T18:25:18.062Z,6.17
2018-09-03T18:27:46.187Z,5.50
2018-09-03T18:30:18.316Z,6.22
2018-09-03T18:32:46.306Z,6.60
2018-09-03T18:35:14.386Z,5.70
2018-09-03T18:37:42.466Z,6.03
2018-09-03T18:40:10.524Z,5.67
2018-09-03T18:42:38.589Z,5.80
2018-09-03T18:45:08.020Z,6.70
2018-09-03T18:47:36.087Z,5.15
2018-09-03T18:50:04.468Z,5.62
2018-09-03T18:52:32.541Z,5.08
2018-09-03T18:55:00.648Z,6.10
2018-09-03T18:57:28.717Z,5.72
2018-09-03T18:59:56.815Z,5.45
2018-09-03T19:02:24.824Z,5.33
2018-09-03T19:04:52.896Z,5.22
2018-09-03T19:07:21.053Z,6.35
2018-09-03T19:09:49.269Z,5.72
2018-09-03T19:12:17.358Z,4.97
2018-09-03T19:14:45.361Z,5.70
2018-09-03T19:17:13.437Z,5.00
2018-09-03T19:19:41.509Z,5.28
2018-09-03T19:22:09.608Z,5.00
2018-09-03T19:24:37.655Z,5.35
2018-09-03T19:27:06.031Z,5.35
2018-09-03T19:29:34.112Z,5.67
2018-09-03T19:32:02.199Z,4.80
2018-09-03T19:34:30.260Z,4.78
2018-09-03T19:36:58.465Z,4.80
2018-09-03T19:39:26.505Z,5.17
2018-09-03T19:41:54.574Z,5.45
2018-09-03T19:44:22.636Z,5.62
2018-09-03T19:46:50.702Z,4.25
2018-09-03T19:49:18.768Z,5.15
2018-09-03T19:51:46.836Z,5.97
2018-09-03T19:54:14.901Z,5.17
2018-09-03T19:56:42.957Z,4.67
2018-09-03T19:59:11.022Z,5.10
2018-09-03T20:01:39.084Z,6.10
2018-09-03T20:04:07.144Z,5.25
2018-09-03T20:06:35.193Z,5.03
2018-09-03T20:09:03.633Z,5.05
2018-09-03T20:11:31.687Z,5.12
2018-09-03T20:13:59.744Z,6.03
2018-09-03T20:16:27.805Z,5.17
2018-09-03T20:18:55.892Z,5.42
2018-09-03T20:21:23.949Z,5.50
2018-09-03T20:23:52.018Z,4.60
2018-09-03T20:26:20.110Z,5.90
2018-09-03T20:28:48.173Z,5.33
2018-09-03T20:31:16.352Z,5.30
2018-09-03T20:33:44.327Z,6.37
2018-09-03T20:36:12.434Z,5.45
2018-09-03T20:38:40.442Z,4.78
2018-09-03T20:41:08.549Z,5.20
2018-09-03T20:43:36.671Z,5.58
2018-09-03T20:46:04.801Z,6.10
2018-09-03T20:48:32.945Z,5.10
2018-09-03T20:51:01.034Z,5.40
2018-09-03T20:53:29.098Z,5.17
2018-09-03T20:55:57.159Z,5.70
2018-09-03T20:58:25.223Z,5.55
2018-09-03T21:00:53.287Z,5.40
2018-09-03T21:03:21.389Z,6.28
2018-09-03T21:05:49.448Z,4.85
2018-09-03T21:08:17.550Z,5.85
2018-09-03T21:10:45.561Z,5.20
2018-09-03T21:13:13.621Z,5.72
2018-09-03T21:15:41.670Z,5.45
2018-09-03T21:18:09.786Z,7.08
2018-09-03T21:20:37.834Z,5.50
2018-09-03T21:23:12.365Z,5.50
2018-09-03T21:25:40.472Z,6.90
2018-09-03T21:28:08.554Z,6.72
2018-09-03T21:30:36.621Z,6.15
2018-09-03T21:33:04.709Z,6.83
2018-09-03T21:35:32.781Z,6.00
2018-09-03T21:38:00.868Z,5.72
2018-09-03T21:40:28.927Z,5.83
2018-09-03T21:42:56.985Z,6.08
2018-09-03T21:45:25.047Z,4.83
2018-09-03T21:47:53.219Z,6.37
2018-09-03T21:50:21.426Z,6.42
2018-09-03T21:52:49.489Z,5.87
2018-09-03T21:55:17.545Z,5.67
2018-09-03T21:57:45.635Z,6.35
2018-09-03T22:00:13.683Z,5.80
2018-09-03T22:02:41.814Z,6.72
2018-09-03T22:05:09.865Z,5.70
2018-09-03T22:07:37.933Z,6.12
2018-09-03T22:10:06.052Z,6.70
2018-09-03T22:12:34.105Z,6.85
2018-09-03T22:15:02.169Z,5.78
2018-09-03T22:17:30.236Z,5.70
2018-09-03T22:19:58.301Z,6.22
2018-09-03T22:22:26.379Z,5.85
2018-09-03T22:24:54.444Z,6.80
2018-09-03T22:27:22.521Z,6.42
2018-09-03T22:29:50.593Z,6.35
2018-09-03T22:32:18.689Z,6.15
2018-09-03T22:34:46.756Z,6.28
2018-09-03T22:37:14.819Z,6.22
2018-09-03T22:39:42.876Z,6.80
2018-09-03T22:42:10.924Z,7.60
2018-09-03T22:44:39.168Z,5.75
2018-09-03T22:47:07.227Z,6.80
2018-09-03T22:49:35.299Z,6.15
2018-09-03T22:52:03.357Z,6.45
2018-09-03T22:54:31.403Z,7.20
2018-09-03T22:56:59.475Z,6.83
2018-09-03T22:59:27.580Z,6.50
2018-09-03T23:01:55.631Z,6.92
2018-09-03T23:04:23.733Z,6.70
2018-09-03T23:06:51.802Z,7.70
2018-09-03T23:09:19.860Z,7.78
2018-09-03T23:11:47.921Z,6.78
2018-09-03T23:14:15.985Z,6.58
2018-09-03T23:16:44.041Z,7.25
2018-09-03T23:19:12.156Z,5.90
2018-09-03T23:21:40.222Z,7.20
2018-09-03T23:24:08.289Z,7.20
2018-09-03T23:26:36.352Z,8.53
2018-09-03T23:29:04.400Z,8.28
2018-09-03T23:31:32.464Z,7.90
2018-09-03T23:34:00.521Z,7.85
2018-09-03T23:36:28.585Z,9.45
2018-09-03T23:38:56.633Z,8.00
2018-09-03T23:41:24.682Z,7.62
2018-09-03T23:43:52.761Z,8.35
2018-09-03T23:46:20.820Z,7.50
2018-09-03T23:48:48.872Z,7.90
2018-09-03T23:51:16.936Z,7.17
2018-09-03T23:53:45.003Z,8.88
2018-09-03T23:56:13.060Z,7.85
2018-09-03T23:58:41.177Z,8.15
